createdAt,value
2019-01-23T00:08:27.789Z,97012.73
2019-01-23T00:11:16.808Z,97013.27
2019-01-23T00:26:49.182Z,96991.30
2019-01-23T00:30:35.763Z,96991.77
2019-01-23T00:33:21.102Z,96984.52
2019-01-23T00:42:28.643Z,96982.51
2019-01-23T00:45:27.962Z,96976.47
2019-01-23T00:52:38.673Z,96965.67
2019-01-23T00:56:31.507Z,96968.78
2019-01-23T00:59:30.019Z,96964.53
2019-01-23T01:06:22.564Z,96954.21
2019-01-23T01:15:33.973Z,96930.25
2019-01-23T01:30:28.973Z,96920.58
2019-01-23T01:32:09.683Z,96920.23
2019-01-23T01:35:00.282Z,96925.54
2019-01-23T01:37:58.041Z,96926.88
2019-01-23T01:40:45.699Z,96921.96
2019-01-23T01:43:29.556Z,96922.26
2019-01-23T01:46:20.782Z,96917.46
2019-01-23T01:55:18.440Z,96915.95
2019-01-23T01:58:19.011Z,96917.27
2019-01-23T02:10:13.172Z,96897.48
2019-01-23T02:13:10.127Z,96893.88
2019-01-23T02:15:47.950Z,96886.52
2019-01-23T02:28:31.479Z,96876.48
2019-01-23T02:40:02.077Z,96851.66
2019-01-23T02:48:11.575Z,96843.14
2019-01-23T02:51:23.510Z,96832.04
2019-01-23T02:54:09.908Z,96830.09
2019-01-23T02:57:31.334Z,96829.78
2019-01-23T03:00:42.924Z,96826.23
2019-01-23T03:07:00.227Z,96821.29
2019-01-23T03:20:10.198Z,96802.13
2019-01-23T03:33:34.578Z,96795.55
2019-01-23T03:36:26.030Z,96789.56
2019-01-23T03:50:34.285Z,96780.39
2019-01-23T03:57:03.932Z,96779.44
2019-01-23T03:59:54.905Z,96775.58
2019-01-23T04:02:53.473Z,96771.22
2019-01-23T04:08:42.491Z,96767.53
2019-01-23T04:15:03.033Z,96760.66
2019-01-23T04:22:09.912Z,96755.07
2019-01-23T04:25:12.283Z,96753.89
2019-01-23T04:29:00.070Z,96753.38
2019-01-23T04:32:04.944Z,96752.08
2019-01-23T04:41:30.837Z,96739.36
2019-01-23T04:44:36.767Z,96739.25
2019-01-23T04:47:17.040Z,96738.62
2019-01-23T04:49:52.148Z,96736.57
2019-01-23T04:52:33.815Z,96734.75
2019-01-23T04:58:48.533Z,96731.19
2019-01-23T05:01:25.685Z,96729.92
2019-01-23T05:04:28.999Z,96723.80
2019-01-23T05:19:54.363Z,96707.84
2019-01-23T05:23:33.781Z,96706.35
2019-01-23T05:26:10.161Z,96704.98
2019-01-23T05:29:03.654Z,96714.86
2019-01-23T05:31:56.735Z,96705.30
2019-01-23T05:38:14.602Z,96703.16
2019-01-23T05:44:28.437Z,96694.23
2019-01-23T05:47:17.165Z,96688.16
2019-01-23T05:50:16.393Z,96693.62
2019-01-23T05:53:15.993Z,96694.22
2019-01-23T05:59:16.209Z,96686.05
2019-01-23T06:01:52.750Z,96683.75
2019-01-23T06:04:37.976Z,96687.68
2019-01-23T06:10:20.731Z,96677.16
2019-01-23T06:13:21.775Z,96679.86
2019-01-23T06:20:52.085Z,96679.14
2019-01-23T06:23:40.137Z,96679.02
2019-01-23T06:26:44.261Z,96676.94
2019-01-23T06:30:30.127Z,96682.44
2019-01-23T06:33:30.927Z,96677.19
2019-01-23T06:36:31.170Z,96680.07
2019-01-23T06:39:31.620Z,96678.83
2019-01-23T06:42:57.753Z,96679.01
2019-01-23T06:48:36.228Z,96683.51
2019-01-23T06:54:45.432Z,96686.63
2019-01-23T06:58:03.060Z,96681.51
2019-01-23T07:30:47.725Z,96692.80
2019-01-23T07:58:14.991Z,96699.66
2019-01-23T08:01:06.076Z,96699.06
2019-01-23T08:04:08.550Z,96694.38
2019-01-23T08:15:18.301Z,96692.37
2019-01-23T08:27:56.779Z,96695.38
2019-01-23T08:30:52.668Z,96696.16
2019-01-23T09:32:53.193Z,96708.48
2019-01-23T09:35:32.284Z,96704.60
2019-01-23T09:41:19.906Z,96707.98
2019-01-23T09:50:15.755Z,96710.56
2019-01-23T10:02:24.023Z,96706.08
2019-01-23T10:14:59.367Z,96612.77
2019-01-23T10:21:16.669Z,96703.06
2019-01-23T10:24:03.348Z,96627.88
2019-01-23T10:27:26.130Z,96706.20
2019-01-23T10:29:52.894Z,96704.37
2019-01-23T10:32:22.804Z,96702.25
2019-01-23T10:34:52.388Z,96703.27
2019-01-23T10:37:22.013Z,96707.84
2019-01-23T10:39:52.376Z,96701.41
2019-01-23T10:42:22.098Z,96696.55
2019-01-23T10:44:51.683Z,96701.85
2019-01-23T10:47:21.258Z,96692.48
2019-01-23T10:49:50.836Z,96695.14
2019-01-23T10:52:20.420Z,96697.14
2019-01-23T10:54:50.029Z,96698.05
2019-01-23T10:57:19.620Z,96696.59
2019-01-23T10:59:49.299Z,96688.92
2019-01-23T11:02:18.939Z,96684.78
2019-01-23T11:04:48.537Z,96685.28
2019-01-23T11:07:18.100Z,96678.81
2019-01-23T11:09:49.238Z,96677.64
2019-01-23T11:12:18.765Z,96672.50
2019-01-23T11:14:48.350Z,96672.75
2019-01-23T11:17:17.986Z,96678.17
2019-01-23T11:19:47.594Z,96668.66
2019-01-23T11:22:17.180Z,96667.59
2019-01-23T11:24:46.789Z,96660.27
2019-01-23T11:27:16.397Z,96666.09
2019-01-23T11:29:45.983Z,96667.80
2019-01-23T11:32:16.054Z,96664.30
2019-01-23T11:34:57.322Z,96663.50
2019-01-23T11:37:26.905Z,96652.77
2019-01-23T11:39:56.542Z,96657.65
2019-01-23T11:42:26.244Z,96654.56
2019-01-23T11:44:55.910Z,96653.11
2019-01-23T11:47:25.473Z,96653.56
2019-01-23T11:49:55.062Z,96664.89
2019-01-23T11:52:24.676Z,96668.67
2019-01-23T11:54:54.257Z,96667.70
2019-01-23T11:57:23.844Z,96669.95
2019-01-23T11:59:53.539Z,96665.47
2019-01-23T12:02:23.110Z,96669.09
2019-01-23T12:04:52.691Z,96674.25
2019-01-23T12:07:22.334Z,96675.27
2019-01-23T12:09:51.925Z,96677.02
2019-01-23T12:12:21.502Z,96673.14
2019-01-23T12:14:51.142Z,96672.41
2019-01-23T12:17:20.750Z,96666.14
2019-01-23T12:19:52.809Z,96676.33
2019-01-23T12:22:22.448Z,96677.66
2019-01-23T12:24:52.059Z,96673.75
2019-01-23T12:27:21.688Z,96673.45
2019-01-23T12:29:51.396Z,96670.70
2019-01-23T12:32:21.036Z,96680.57
2019-01-23T12:34:50.639Z,96677.55
2019-01-23T12:37:20.268Z,96677.87
2019-01-23T12:39:49.851Z,96688.48
2019-01-23T12:42:19.430Z,96686.95
2019-01-23T12:44:49.100Z,96688.23
2019-01-23T12:47:18.715Z,96681.70
2019-01-23T12:49:48.311Z,96686.48
2019-01-23T12:52:17.938Z,96683.33
2019-01-23T12:54:47.517Z,96683.36
2019-01-23T12:57:17.086Z,96686.52
2019-01-23T12:59:46.714Z,96694.26
2019-01-23T13:02:16.286Z,96695.00
2019-01-23T13:04:46.030Z,96688.91
2019-01-23T13:07:15.679Z,96693.98
2019-01-23T13:09:45.290Z,96692.80
2019-01-23T13:12:34.210Z,96694.97
2019-01-23T13:15:05.168Z,96701.36
2019-01-23T13:17:34.745Z,96701.84
2019-01-23T13:20:07.376Z,96697.55
2019-01-23T13:22:37.017Z,96701.98
2019-01-23T13:25:11.281Z,96709.59
2019-01-23T13:27:41.058Z,96710.72
2019-01-23T13:30:15.218Z,96713.69
2019-01-23T13:32:45.053Z,96714.34
2019-01-23T13:35:18.902Z,96720.44
2019-01-23T13:37:48.664Z,96718.72
2019-01-23T13:40:22.468Z,96727.66
2019-01-23T13:42:52.148Z,96729.11
2019-01-23T13:45:22.015Z,96731.13
2019-01-23T13:47:51.750Z,96726.61
2019-01-23T13:50:21.425Z,96732.83
2019-01-23T13:52:51.096Z,96737.41
2019-01-23T13:55:23.868Z,96739.86
2019-01-23T13:57:54.110Z,96742.31
2019-01-23T14:00:28.484Z,96741.52
2019-01-23T14:02:58.371Z,96743.38
2019-01-23T14:05:28.033Z,96747.16
2019-01-23T14:07:57.621Z,96745.78
2019-01-23T14:10:27.281Z,96754.55
2019-01-23T14:12:57.378Z,96762.80
2019-01-23T14:15:46.282Z,96761.11
2019-01-23T14:18:15.970Z,96766.00
2019-01-23T14:20:45.562Z,96767.39
2019-01-23T14:23:15.206Z,96764.55
2019-01-23T14:25:44.805Z,96769.79
2019-01-23T14:28:14.384Z,96766.63
2019-01-23T14:30:45.398Z,96772.13
2019-01-23T14:33:15.122Z,96771.83
2019-01-23T14:35:44.854Z,96766.20
2019-01-23T14:38:14.554Z,96773.97
2019-01-23T14:40:44.199Z,96770.91
2019-01-23T14:43:13.838Z,96778.98
2019-01-23T14:45:43.517Z,96785.19
2019-01-23T14:48:13.153Z,96781.37
2019-01-23T14:50:42.822Z,96780.73
2019-01-23T14:53:12.386Z,96786.81
2019-01-23T14:55:42.169Z,96786.72
2019-01-23T14:58:11.898Z,96787.20
2019-01-23T15:00:41.472Z,96789.34
2019-01-23T15:03:11.058Z,96794.53
2019-01-23T15:05:40.734Z,96796.73
2019-01-23T15:08:10.315Z,96801.56
2019-01-23T15:10:39.918Z,96796.86
2019-01-23T15:13:09.502Z,96802.31
2019-01-23T15:15:39.141Z,96805.75
2019-01-23T15:18:08.905Z,96806.98
2019-01-23T15:20:39.882Z,96814.23
2019-01-23T15:23:09.484Z,96813.68
2019-01-23T15:25:39.131Z,96812.83
2019-01-23T15:28:08.838Z,96814.34
2019-01-23T15:30:39.889Z,96818.58
2019-01-23T15:33:12.452Z,96825.25
2019-01-23T15:35:42.373Z,96827.30
2019-01-23T15:38:11.981Z,96827.98
2019-01-23T15:40:41.996Z,96833.04
2019-01-23T15:43:11.573Z,96833.44
2019-01-23T15:45:41.211Z,96825.81
2019-01-23T15:48:10.823Z,96834.41
2019-01-23T15:50:40.400Z,96833.30
2019-01-23T15:53:09.973Z,96838.68
2019-01-23T15:55:39.668Z,96841.38
2019-01-23T15:58:09.265Z,96840.12
2019-01-23T16:00:38.956Z,96841.58
2019-01-23T16:03:08.702Z,96845.50
2019-01-23T16:05:38.296Z,96849.75
2019-01-23T16:08:10.521Z,96849.64
2019-01-23T16:10:40.173Z,96854.55
2019-01-23T16:13:09.774Z,96854.78
2019-01-23T16:15:39.382Z,96854.22
2019-01-23T16:18:08.982Z,96857.44
2019-01-23T16:20:38.623Z,96860.34
2019-01-23T16:23:08.198Z,96871.77
2019-01-23T16:25:37.813Z,96866.97
2019-01-23T16:28:07.399Z,96865.11
2019-01-23T16:30:38.003Z,96873.70
2019-01-23T16:33:07.803Z,96874.35
2019-01-23T16:35:38.843Z,96879.94
2019-01-23T16:38:09.105Z,96882.87
2019-01-23T16:40:39.899Z,96888.70
2019-01-23T16:43:09.485Z,96892.89
2019-01-23T16:45:39.233Z,96893.41
2019-01-23T16:48:08.893Z,96907.48
2019-01-23T16:50:38.507Z,96906.73
2019-01-23T16:53:08.132Z,96916.77
2019-01-23T16:55:37.930Z,96917.42
2019-01-23T16:58:08.714Z,96926.58
2019-01-23T17:00:39.958Z,96935.61
2019-01-23T17:03:09.925Z,96933.30
2019-01-23T17:05:39.559Z,96934.59
2019-01-23T17:08:09.759Z,96940.32
2019-01-23T17:10:39.761Z,96936.69
2019-01-23T17:13:09.452Z,96947.73
2019-01-23T17:15:39.034Z,96946.14
2019-01-23T17:18:08.789Z,96945.23
2019-01-23T17:20:42.902Z,96953.92
2019-01-23T17:23:12.539Z,96958.11
2019-01-23T17:25:42.146Z,96960.72
2019-01-23T17:28:13.426Z,96961.68
2019-01-23T17:30:43.004Z,96967.48
2019-01-23T17:33:12.777Z,96965.88
2019-01-23T17:36:01.624Z,96966.94
2019-01-23T17:38:31.539Z,96976.60
2019-01-23T17:41:01.120Z,96970.88
2019-01-23T17:43:31.263Z,96974.50
2019-01-23T17:46:01.286Z,96977.83
2019-01-23T17:48:30.941Z,96983.58
2019-01-23T17:51:00.799Z,96992.36
2019-01-23T17:53:30.451Z,96989.31
2019-01-23T17:56:00.054Z,96993.16
2019-01-23T17:58:29.625Z,96998.00
2019-01-23T18:00:59.743Z,96997.50
2019-01-23T18:03:29.470Z,97001.53
2019-01-23T18:06:04.962Z,97008.41
2019-01-23T18:08:34.530Z,97008.81
2019-01-23T18:11:04.168Z,97006.47
2019-01-23T18:13:33.768Z,97016.80
2019-01-23T18:16:05.356Z,97014.25
2019-01-23T18:18:34.935Z,97013.95
2019-01-23T18:21:04.801Z,97013.62
2019-01-23T18:23:34.402Z,97018.88
2019-01-23T18:26:04.275Z,97027.59
2019-01-23T18:28:33.868Z,97028.97
2019-01-23T18:31:07.933Z,97030.78
2019-01-23T18:33:42.005Z,97029.97
2019-01-23T18:36:16.057Z,97041.46
2019-01-23T18:38:50.157Z,97051.20
2019-01-23T18:41:24.944Z,97050.94
2019-01-23T18:43:59.524Z,97042.79
2019-01-23T18:46:33.632Z,97047.57
2019-01-23T18:49:07.690Z,97052.78
2019-01-23T18:51:38.379Z,97052.07
2019-01-23T18:54:08.089Z,97069.12
2019-01-23T18:56:38.022Z,97062.83
2019-01-23T18:59:08.018Z,97065.40
2019-01-23T19:01:37.599Z,97072.55
2019-01-23T19:04:07.301Z,97072.22
2019-01-23T19:06:36.856Z,97075.60
2019-01-23T19:09:09.847Z,97078.88
2019-01-23T19:11:39.628Z,97084.63
2019-01-23T19:14:09.223Z,97090.20
2019-01-23T19:16:38.965Z,97092.09
2019-01-23T19:19:08.591Z,97091.27
2019-01-23T19:21:40.854Z,97094.42
2019-01-23T19:24:29.715Z,97097.02
2019-01-23T19:26:59.299Z,97093.20
2019-01-23T19:29:29.225Z,97091.22
2019-01-23T19:32:18.127Z,97093.39
2019-01-23T19:34:47.691Z,97101.62
2019-01-23T19:37:17.304Z,97090.93
2019-01-23T19:39:47.076Z,97087.13
2019-01-23T19:42:16.653Z,97095.66
2019-01-23T19:44:46.319Z,97101.57
2019-01-23T19:47:16.008Z,97106.33
2019-01-23T19:49:45.626Z,97107.36
2019-01-23T19:52:16.349Z,97109.44
2019-01-23T19:54:45.937Z,97110.33
2019-01-23T19:57:15.605Z,97115.39
2019-01-23T19:59:45.195Z,97121.26
2019-01-23T20:02:14.902Z,97121.88
2019-01-23T20:04:44.484Z,97125.65
2019-01-23T20:07:14.076Z,97121.97
2019-01-23T20:09:43.781Z,97123.09
2019-01-23T20:12:15.605Z,97123.35
2019-01-23T20:14:44.696Z,97139.48
2019-01-23T20:17:14.310Z,97136.37
2019-01-23T20:19:43.893Z,97138.70
2019-01-23T20:22:13.515Z,97141.53
2019-01-23T20:24:43.217Z,97143.58
2019-01-23T20:27:12.770Z,97151.48
2019-01-23T20:29:42.381Z,97147.16
2019-01-23T20:32:11.992Z,97151.30
2019-01-23T20:34:41.551Z,97147.75
2019-01-23T20:37:11.127Z,97146.83
2019-01-23T20:39:40.754Z,97149.07
2019-01-23T20:42:10.361Z,97152.02
2019-01-23T20:44:39.946Z,97155.14
2019-01-23T20:47:09.656Z,97150.59
2019-01-23T20:49:39.217Z,97153.55
2019-01-23T20:52:08.908Z,97154.70
2019-01-23T20:54:38.529Z,97157.19
2019-01-23T20:57:08.090Z,97158.33
2019-01-23T20:59:37.668Z,97161.42
2019-01-23T21:02:07.265Z,97161.05
2019-01-23T21:04:36.872Z,97156.84
2019-01-23T21:07:06.543Z,97156.34
2019-01-23T21:09:36.148Z,97158.60
2019-01-23T21:12:05.874Z,97164.98
2019-01-23T21:14:35.464Z,97166.75
2019-01-23T21:17:05.359Z,97165.23
2019-01-23T21:19:34.967Z,97168.94
2019-01-23T21:22:04.719Z,97174.71
2019-01-23T21:24:34.335Z,97171.59
2019-01-23T21:27:03.905Z,97182.03
2019-01-23T21:29:33.516Z,97181.00
2019-01-23T21:32:03.140Z,97189.56
2019-01-23T21:34:52.012Z,97184.45
2019-01-23T21:37:21.913Z,97195.13
2019-01-23T21:39:51.487Z,97190.97
2019-01-23T21:42:21.089Z,97197.18
2019-01-23T21:44:50.746Z,97203.78
2019-01-23T21:47:20.306Z,97203.93
2019-01-23T21:49:49.911Z,97205.86
2019-01-23T21:52:19.514Z,97207.92
2019-01-23T21:54:49.127Z,97202.09
2019-01-23T21:57:18.713Z,97202.64
2019-01-23T21:59:48.442Z,97200.45
2019-01-23T22:02:18.011Z,97198.76
2019-01-23T22:04:47.662Z,97201.25
2019-01-23T22:07:17.290Z,97204.05
2019-01-23T22:09:46.896Z,97202.50
2019-01-23T22:12:16.470Z,97204.41
2019-01-23T22:14:46.093Z,97209.61
2019-01-23T22:17:15.686Z,97208.77
2019-01-23T22:19:45.327Z,97212.05
2019-01-23T22:22:14.941Z,97212.49
2019-01-23T22:24:44.544Z,97224.31
2019-01-23T22:27:14.117Z,97222.76
2019-01-23T22:29:43.752Z,97222.88
2019-01-23T22:32:13.332Z,97229.72
2019-01-23T22:34:42.935Z,97232.39
2019-01-23T22:37:12.580Z,97229.04
2019-01-23T22:39:42.197Z,97225.70
2019-01-23T22:42:11.773Z,97233.49
2019-01-23T22:44:41.381Z,97239.25
2019-01-23T22:47:11.017Z,97242.45
2019-01-23T22:49:40.586Z,97248.02
2019-01-23T22:52:10.195Z,97248.48
2019-01-23T22:54:41.170Z,97249.33
2019-01-23T22:57:10.745Z,97251.67
2019-01-23T22:59:40.404Z,97256.95
2019-01-23T23:02:11.645Z,97258.98
2019-01-23T23:04:41.244Z,97267.30
2019-01-23T23:07:10.833Z,97268.81
2019-01-23T23:09:40.426Z,97272.33
2019-01-23T23:12:10.030Z,97271.95
2019-01-23T23:14:39.636Z,97277.02
2019-01-23T23:17:09.224Z,97283.82
2019-01-23T23:19:38.822Z,97290.27
2019-01-23T23:22:08.413Z,97296.88
2019-01-23T23:24:38.009Z,97300.17
2019-01-23T23:27:07.695Z,97298.60
2019-01-23T23:29:37.312Z,97299.16
2019-01-23T23:32:07.015Z,97297.49
2019-01-23T23:34:36.621Z,97302.59
2019-01-23T23:37:06.410Z,97299.28
2019-01-23T23:39:35.980Z,97311.41
2019-01-23T23:42:05.932Z,97311.69
2019-01-23T23:44:35.562Z,97313.34
2019-01-23T23:47:06.147Z,97313.80
2019-01-23T23:49:35.716Z,97316.63
2019-01-23T23:52:05.794Z,97316.92
2019-01-23T23:54:35.355Z,97327.59
2019-01-23T23:57:05.403Z,97326.82
2019-01-23T23:59:35.009Z,97328.42
